Time;durP1;ratioP1;P1;durP2;ratioP2;P2;SDS_P1;SDS_P2;PMS_P1;PMS_P2;Temp;Humidity;BMP_temperature;BMP_pressure;BME280_temperature;BME280_humidity;BME280_pressure;Samples;Min_cycle;Max_cycle;Signal;HPM_P1;HPM_P2
2021/06/06 00:01:35;;;;;;;102.05;53.75;;;16.60;99.90;;;;;;5109987;28;20048;-73
2021/06/06 00:04:01;;;;;;;106.25;52.42;;;16.70;99.90;;;;;;5110269;28;20020;-73
2021/06/06 00:06:30;;;;;;;99.55;51.00;;;16.70;99.90;;;;;;5092059;28;20069;-73
2021/06/06 00:09:00;;;;;;;100.78;50.75;;;16.60;99.90;;;;;;5110667;28;20477;-73
2021/06/06 00:11:30;;;;;;;101.38;52.08;;;16.60;99.90;;;;;;5109665;28;20028;-72
2021/06/06 00:13:59;;;;;;;94.47;50.92;;;16.60;99.90;;;;;;5098014;28;20480;-73
2021/06/06 00:16:29;;;;;;;97.93;50.47;;;16.60;99.90;;;;;;5095251;28;20032;-73
2021/06/06 00:18:55;;;;;;;95.28;50.25;;;16.60;99.90;;;;;;5095504;28;20031;-73
2021/06/06 00:21:22;;;;;;;97.75;49.33;;;16.60;99.90;;;;;;5095360;28;20035;-72
2021/06/06 00:23:48;;;;;;;87.63;48.60;;;16.60;99.90;;;;;;5096608;28;20020;-72
2021/06/06 00:26:14;;;;;;;94.80;51.33;;;16.40;99.90;;;;;;5096536;28;20021;-72
2021/06/06 00:28:39;;;;;;;97.70;50.58;;;16.40;99.90;;;;;;5096426;28;20024;-72
2021/06/06 00:31:08;;;;;;;99.05;52.47;;;16.30;99.90;;;;;;5095287;28;20028;-72
2021/06/06 00:33:35;;;;;;;97.53;52.00;;;16.20;99.90;;;;;;5096409;28;20020;-72
2021/06/06 00:36:01;;;;;;;90.22;51.45;;;16.30;99.90;;;;;;5095495;28;20029;-72
2021/06/06 00:38:26;;;;;;;101.55;52.60;;;16.20;99.90;;;;;;5094764;28;20077;-73
2021/06/06 00:40:52;;;;;;;102.25;54.33;;;16.10;99.90;;;;;;5095013;28;20020;-72
2021/06/06 00:43:18;;;;;;;94.47;50.28;;;16.20;99.90;;;;;;5095059;28;20020;-72
2021/06/06 00:45:44;;;;;;;92.28;49.58;;;16.20;99.90;;;;;;5094686;28;20469;-72
2021/06/06 00:48:10;;;;;;;90.45;47.95;;;16.20;99.90;;;;;;5094948;28;20462;-72
2021/06/06 00:50:40;;;;;;;87.35;49.55;;;16.10;99.90;;;;;;5096103;28;20065;-72
2021/06/06 00:53:11;;;;;;;91.63;50.40;;;16.10;99.90;;;;;;5094893;28;20540;-72
2021/06/06 00:55:39;;;;;;;90.22;51.05;;;16.00;99.90;;;;;;5095955;28;20020;-73
2021/06/06 00:58:07;;;;;;;96.38;52.25;;;16.00;99.90;;;;;;5094829;28;20039;-72
2021/06/06 01:00:39;;;;;;;89.25;48.80;;;16.00;99.90;;;;;;5094597;28;20039;-72
2021/06/06 01:03:05;;;;;;;99.05;52.08;;;16.00;99.90;;;;;;5094818;28;20020;-72
2021/06/06 01:05:41;;;;;;;89.55;50.38;;;16.00;99.90;;;;;;5077599;28;20024;-72
2021/06/06 01:08:10;;;;;;;91.38;50.60;;;16.00;99.90;;;;;;5094727;28;20020;-73
2021/06/06 01:10:36;;;;;;;87.57;50.25;;;15.90;99.90;;;;;;5094293;28;20028;-72
2021/06/06 01:13:17;;;;;;;82.93;47.65;;;16.00;99.90;;;;;;5094618;28;20418;-74
2021/06/06 01:15:46;;;;;;;84.75;47.83;;;16.00;99.90;;;;;;5077333;28;20054;-72
2021/06/06 01:18:32;;;;;;;80.78;47.70;;;16.10;99.90;;;;;;5095891;28;20077;-72
2021/06/06 01:21:15;;;;;;;86.05;50.10;;;16.00;99.90;;;;;;5095414;28;20016;-74
2021/06/06 01:24:02;;;;;;;85.90;49.40;;;16.00;99.90;;;;;;5077089;28;20362;-72
2021/06/06 01:26:34;;;;;;;87.45;50.15;;;16.00;99.90;;;;;;5110386;28;20078;-73
2021/06/06 01:29:11;;;;;;;90.65;51.22;;;16.00;99.90;;;;;;5094218;28;20056;-72
2021/06/06 01:31:41;;;;;;;100.45;52.10;;;15.90;99.90;;;;;;5093804;28;20051;-72
2021/06/06 01:34:09;;;;;;;95.93;52.40;;;15.90;99.90;;;;;;5077154;28;20118;-73
2021/06/06 01:36:39;;;;;;;93.43;53.88;;;15.90;99.90;;;;;;5095531;28;20093;-73
2021/06/06 01:39:13;;;;;;;95.97;51.28;;;15.80;99.90;;;;;;5095127;28;20461;-72
2021/06/06 01:41:43;;;;;;;97.57;50.60;;;15.90;99.90;;;;;;5095277;28;20036;-72
2021/06/06 01:44:13;;;;;;;91.35;51.65;;;15.80;99.90;;;;;;5093867;28;20028;-73
2021/06/06 01:46:42;;;;;;;97.40;52.72;;;15.70;99.90;;;;;;5093908;28;20098;-74
2021/06/06 01:49:11;;;;;;;99.80;53.60;;;15.70;99.90;;;;;;5095205;28;20402;-72
2021/06/06 01:51:42;;;;;;;101.32;55.00;;;15.70;99.90;;;;;;5094861;28;20031;-72
2021/06/06 01:54:11;;;;;;;96.03;53.35;;;15.70;99.90;;;;;;5076348;28;20028;-74
2021/06/06 01:56:40;;;;;;;99.35;53.45;;;15.70;99.90;;;;;;5093931;28;20020;-72
2021/06/06 01:59:11;;;;;;;109.57;55.42;;;15.70;99.90;;;;;;5093534;28;20028;-73
2021/06/06 02:01:37;;;;;;;103.93;53.97;;;15.60;99.90;;;;;;5094518;28;20240;-73
2021/06/06 02:04:05;;;;;;;102.82;54.95;;;15.50;99.90;;;;;;5094944;28;20028;-73
2021/06/06 02:06:46;;;;;;;97.75;55.08;;;15.50;99.90;;;;;;5076866;28;20055;-73
2021/06/06 02:09:16;;;;;;;98.78;51.03;;;15.40;99.90;;;;;;5094805;28;20020;-73
2021/06/06 02:11:46;;;;;;;100.15;53.53;;;15.30;99.90;;;;;;5093289;28;20028;-73
2021/06/06 02:14:18;;;;;;;105.07;54.03;;;15.30;99.90;;;;;;5092950;28;20035;-74
2021/06/06 02:16:47;;;;;;;103.45;54.72;;;15.20;99.90;;;;;;5092926;28;20104;-73
2021/06/06 02:19:13;;;;;;;104.88;53.72;;;15.20;99.90;;;;;;5094677;28;20035;-73
2021/06/06 02:21:39;;;;;;;100.13;51.88;;;15.20;99.90;;;;;;5093434;28;20397;-73
2021/06/06 02:24:06;;;;;;;98.95;53.63;;;15.20;99.90;;;;;;5093986;28;20020;-73
2021/06/06 02:26:42;;;;;;;99.07;53.08;;;15.20;99.90;;;;;;5076504;28;20022;-73
2021/06/06 02:29:22;;;;;;;101.22;53.72;;;15.30;99.90;;;;;;5093874;28;20027;-73
2021/06/06 02:32:07;;;;;;;99.28;53.83;;;15.20;99.90;;;;;;5093193;28;20118;-73
2021/06/06 02:34:52;;;;;;;95.07;49.92;;;15.20;99.90;;;;;;5092709;28;20081;-73
2021/06/06 02:37:25;;;;;;;94.35;51.70;;;15.20;99.90;;;;;;5092738;28;20028;-73
2021/06/06 02:39:57;;;;;;;101.20;52.58;;;15.20;99.90;;;;;;5093200;28;20059;-73
2021/06/06 02:42:27;;;;;;;96.07;48.90;;;15.10;99.90;;;;;;5092492;28;20439;-73
2021/06/06 02:44:58;;;;;;;94.97;46.67;;;15.20;99.90;;;;;;5094073;28;20016;-73
2021/06/06 02:47:29;;;;;;;90.35;47.70;;;15.10;99.90;;;;;;5075594;28;20016;-73
2021/06/06 02:49:57;;;;;;;94.10;47.65;;;15.10;99.90;;;;;;5094234;28;20016;-73
2021/06/06 02:52:39;;;;;;;83.38;47.38;;;15.10;99.90;;;;;;5092376;28;20082;-73
2021/06/06 02:55:11;;;;;;;91.68;47.28;;;15.00;99.90;;;;;;5093148;28;20077;-73
2021/06/06 02:57:40;;;;;;;91.65;46.97;;;15.10;99.90;;;;;;5093650;28;20020;-73
2021/06/06 03:00:16;;;;;;;89.72;45.70;;;15.00;99.90;;;;;;5093251;28;20441;-73
2021/06/06 03:02:47;;;;;;;83.95;45.30;;;15.10;99.90;;;;;;5093277;28;20051;-73
2021/06/06 03:05:15;;;;;;;79.78;43.20;;;15.10;99.90;;;;;;5075990;28;20526;-73
2021/06/06 03:07:47;;;;;;;75.68;43.40;;;15.10;99.90;;;;;;5075612;28;20039;-73
2021/06/06 03:10:15;;;;;;;70.78;39.22;;;15.10;99.90;;;;;;5092926;28;20024;-73
2021/06/06 03:12:42;;;;;;;72.88;41.63;;;15.10;99.90;;;;;;5093750;28;20020;-74
2021/06/06 03:15:11;;;;;;;71.40;39.92;;;15.10;99.90;;;;;;5094005;28;20028;-73
2021/06/06 03:17:41;;;;;;;77.60;43.13;;;15.10;99.90;;;;;;5093683;28;20111;-73
2021/06/06 03:20:11;;;;;;;72.50;39.78;;;15.10;99.90;;;;;;5092488;28;20036;-73
2021/06/06 03:22:40;;;;;;;71.80;38.63;;;15.20;99.90;;;;;;5093614;28;20035;-73
2021/06/06 03:25:12;;;;;;;66.28;39.05;;;15.20;99.90;;;;;;5092202;28;20024;-73
2021/06/06 03:27:40;;;;;;;66.07;38.38;;;15.20;99.90;;;;;;5075839;28;20107;-73
2021/06/06 03:33:15;;;;;;;69.15;38.97;;;15.20;99.90;;;;;;5128294;27;20569;-71
2021/06/06 03:35:41;;;;;;;64.13;36.47;;;15.20;99.90;;;;;;5110894;28;20028;-71
2021/06/06 03:38:08;;;;;;;61.55;36.88;;;15.20;99.90;;;;;;5110964;28;20115;-74
2021/06/06 03:40:37;;;;;;;61.28;36.85;;;15.20;99.90;;;;;;5111474;28;20028;-71
2021/06/06 03:43:05;;;;;;;65.30;38.33;;;15.20;99.90;;;;;;5111878;28;20073;-73
2021/06/06 03:45:31;;;;;;;65.05;38.45;;;15.20;99.90;;;;;;5111735;28;20031;-71
2021/06/06 03:47:58;;;;;;;61.22;36.95;;;15.10;99.90;;;;;;5110279;28;20099;-72
2021/06/06 03:50:26;;;;;;;63.03;38.17;;;15.10;99.90;;;;;;5111668;28;20023;-73
2021/06/06 03:52:52;;;;;;;68.03;38.72;;;15.20;99.90;;;;;;5110088;28;20027;-72
2021/06/06 03:55:19;;;;;;;64.43;38.35;;;15.20;99.90;;;;;;5111561;28;20020;-74
2021/06/06 03:57:45;;;;;;;68.28;39.25;;;15.20;99.90;;;;;;5110914;28;20023;-71
2021/06/06 04:00:16;;;;;;;62.78;37.80;;;15.20;99.90;;;;;;5111502;28;20028;-72
2021/06/06 04:02:43;;;;;;;68.35;38.53;;;15.20;99.90;;;;;;5111117;28;20020;-73
2021/06/06 04:05:10;;;;;;;65.85;36.90;;;15.10;99.90;;;;;;5109654;28;20020;-74
2021/06/06 04:07:36;;;;;;;64.93;37.10;;;15.10;99.90;;;;;;5110171;28;20107;-74
2021/06/06 04:10:03;;;;;;;63.28;38.15;;;15.10;99.90;;;;;;5110757;28;20153;-74
2021/06/06 04:12:28;;;;;;;65.70;37.58;;;15.00;99.90;;;;;;5092367;28;20024;-72
2021/06/06 04:14:54;;;;;;;66.00;38.35;;;15.00;99.90;;;;;;5110191;28;20024;-73
2021/06/06 04:17:20;;;;;;;62.35;38.30;;;15.00;99.90;;;;;;5092921;28;20024;-73
2021/06/06 04:19:48;;;;;;;65.18;37.13;;;15.00;99.90;;;;;;5110910;28;20024;-74
2021/06/06 04:22:14;;;;;;;65.95;40.33;;;15.00;99.90;;;;;;5111071;28;20058;-74
2021/06/06 04:24:40;;;;;;;67.22;39.72;;;15.00;99.90;;;;;;5109891;28;20071;-73
2021/06/06 04:27:06;;;;;;;68.60;40.40;;;14.90;99.90;;;;;;5109641;28;20481;-73
2021/06/06 04:29:32;;;;;;;67.10;39.05;;;14.90;99.90;;;;;;5109266;28;20027;-72
2021/06/06 04:31:58;;;;;;;76.80;42.40;;;14.90;99.90;;;;;;5110461;28;20054;-74
2021/06/06 04:34:23;;;;;;;76.10;42.15;;;14.80;99.90;;;;;;5109519;28;20044;-73
2021/06/06 04:36:50;;;;;;;80.88;43.92;;;14.80;99.90;;;;;;5092189;28;20030;-73
2021/06/06 04:39:16;;;;;;;74.22;42.92;;;14.80;99.90;;;;;;5108921;28;20073;-73
2021/06/06 04:41:43;;;;;;;75.60;44.35;;;14.80;99.90;;;;;;5091821;28;20048;-73
2021/06/06 04:44:08;;;;;;;71.65;44.20;;;14.80;99.90;;;;;;5080381;28;20048;-73
2021/06/06 04:46:34;;;;;;;80.80;46.95;;;14.70;99.90;;;;;;5096683;28;20410;-73
2021/06/06 04:49:00;;;;;;;85.10;48.22;;;14.80;99.90;;;;;;5078213;28;20020;-74
2021/06/06 04:51:26;;;;;;;83.95;47.28;;;14.80;99.90;;;;;;5096862;28;20070;-74
2021/06/06 04:53:55;;;;;;;77.50;44.95;;;14.80;99.90;;;;;;5095338;28;20465;-73
2021/06/06 04:56:23;;;;;;;69.68;43.38;;;14.70;99.90;;;;;;5095619;28;20020;-74
2021/06/06 04:58:49;;;;;;;70.80;43.50;;;14.90;99.90;;;;;;5095270;28;20016;-73
2021/06/06 05:01:15;;;;;;;77.68;43.75;;;14.80;99.90;;;;;;5096676;28;20488;-71
2021/06/06 05:03:41;;;;;;;75.53;43.55;;;14.80;99.90;;;;;;5096651;28;20055;-72
2021/06/06 05:06:07;;;;;;;75.18;45.17;;;14.80;99.90;;;;;;5096644;28;20020;-73
2021/06/06 05:08:34;;;;;;;79.15;45.58;;;14.80;99.90;;;;;;5096530;28;20381;-73
2021/06/06 05:10:59;;;;;;;69.45;41.83;;;14.90;99.90;;;;;;5095268;28;20028;-72
2021/06/06 05:13:26;;;;;;;69.93;43.05;;;15.00;99.90;;;;;;5096158;28;20020;-72
2021/06/06 05:15:53;;;;;;;68.07;42.25;;;15.00;99.90;;;;;;5095137;28;20115;-72
2021/06/06 05:18:19;;;;;;;67.88;41.17;;;15.00;99.90;;;;;;5094932;28;20465;-72
2021/06/06 05:20:47;;;;;;;66.28;39.95;;;15.00;99.90;;;;;;5094798;28;20419;-72
2021/06/06 05:23:14;;;;;;;64.50;40.13;;;15.10;99.90;;;;;;5096361;28;20023;-72
2021/06/06 05:25:41;;;;;;;59.90;38.03;;;15.10;99.90;;;;;;5094659;28;20020;-72
2021/06/06 05:28:10;;;;;;;60.90;37.63;;;15.20;99.90;;;;;;5094847;28;20540;-74
2021/06/06 05:30:38;;;;;;;64.85;39.03;;;15.20;99.90;;;;;;5095627;28;20025;-72
2021/06/06 05:33:05;;;;;;;55.63;37.95;;;15.30;99.90;;;;;;5094087;28;20098;-74
2021/06/06 05:35:33;;;;;;;57.85;37.63;;;15.30;99.90;;;;;;5094660;28;20074;-74
2021/06/06 05:37:59;;;;;;;62.20;38.83;;;15.30;99.90;;;;;;5095457;28;20016;-74
2021/06/06 05:40:27;;;;;;;58.40;36.60;;;15.30;99.90;;;;;;5077945;28;20165;-74
2021/06/06 05:42:53;;;;;;;52.63;35.92;;;15.30;99.90;;;;;;5095901;28;20024;-74
2021/06/06 05:45:22;;;;;;;58.58;36.70;;;15.20;99.90;;;;;;5095608;28;20105;-74
2021/06/06 05:47:48;;;;;;;57.65;36.30;;;15.20;99.90;;;;;;5095835;28;20073;-73
2021/06/06 05:50:17;;;;;;;50.63;35.78;;;15.30;99.90;;;;;;5094198;28;20358;-74
2021/06/06 05:52:43;;;;;;;54.35;35.55;;;15.30;99.90;;;;;;5095698;28;20016;-74
2021/06/06 05:55:09;;;;;;;54.35;35.45;;;15.30;99.90;;;;;;5093292;28;20066;-74
2021/06/06 05:57:35;;;;;;;52.75;35.47;;;15.40;99.90;;;;;;5094299;28;20578;-73
2021/06/06 06:00:06;;;;;;;54.63;34.40;;;15.40;99.90;;;;;;5094020;28;20063;-74
2021/06/06 06:02:31;;;;;;;53.55;36.42;;;15.30;99.90;;;;;;5095541;28;20028;-74
2021/06/06 06:04:57;;;;;;;53.50;36.67;;;15.40;99.90;;;;;;5077301;28;20024;-73
2021/06/06 06:07:23;;;;;;;51.00;35.33;;;15.40;99.90;;;;;;5093607;28;20028;-74
2021/06/06 06:09:48;;;;;;;55.55;35.42;;;15.50;99.90;;;;;;5077566;28;20028;-74
2021/06/06 06:12:14;;;;;;;53.42;36.25;;;15.60;99.90;;;;;;5077126;28;20039;-74
2021/06/06 06:14:39;;;;;;;51.05;33.30;;;15.70;99.90;;;;;;5094033;28;20501;-74
2021/06/06 06:17:05;;;;;;;52.50;35.30;;;15.70;99.90;;;;;;5094076;28;20020;-74
2021/06/06 06:19:33;;;;;;;52.08;36.10;;;15.70;99.90;;;;;;5093765;28;20043;-74
2021/06/06 06:21:59;;;;;;;55.70;36.75;;;15.60;99.90;;;;;;5094910;28;20031;-74
2021/06/06 06:24:25;;;;;;;52.38;35.40;;;15.70;99.90;;;;;;5093962;28;20028;-74
2021/06/06 06:26:52;;;;;;;56.88;34.88;;;15.70;99.90;;;;;;5093640;28;20032;-74
2021/06/06 06:29:18;;;;;;;51.58;34.58;;;15.70;99.90;;;;;;5093683;28;20028;-74
2021/06/06 06:31:43;;;;;;;47.67;33.90;;;15.80;99.90;;;;;;5093174;28;20048;-73
2021/06/06 06:34:09;;;;;;;52.55;34.90;;;15.80;99.90;;;;;;5093441;28;20016;-74
2021/06/06 06:36:35;;;;;;;51.28;33.58;;;15.80;99.90;;;;;;5093485;28;20024;-74
2021/06/06 06:39:00;;;;;;;50.22;35.58;;;15.90;99.90;;;;;;5092996;28;20172;-73
2021/06/06 06:41:29;;;;;;;49.88;33.38;;;16.00;99.90;;;;;;5094496;28;20078;-72
2021/06/06 06:43:55;;;;;;;47.83;32.63;;;16.00;99.90;;;;;;5092845;28;20115;-73
2021/06/06 06:46:22;;;;;;;50.78;33.42;;;16.10;99.90;;;;;;5093027;28;20027;-72
2021/06/06 06:48:48;;;;;;;52.85;33.92;;;16.10;99.90;;;;;;5094686;28;20028;-72
2021/06/06 06:51:14;;;;;;;47.47;32.78;;;16.10;99.90;;;;;;5093184;28;20069;-73
2021/06/06 06:53:41;;;;;;;47.22;33.42;;;16.00;99.90;;;;;;5094103;28;20016;-73
2021/06/06 06:56:07;;;;;;;48.33;33.53;;;16.00;99.90;;;;;;5075928;28;20107;-73
2021/06/06 06:58:32;;;;;;;53.40;35.95;;;16.00;99.90;;;;;;5075898;28;20055;-73
2021/06/06 07:00:58;;;;;;;57.35;37.28;;;16.00;99.90;;;;;;5094215;28;20020;-73
2021/06/06 07:03:28;;;;;;;56.47;36.85;;;15.90;99.90;;;;;;5093330;28;20020;-73
2021/06/06 07:05:56;;;;;;;52.75;34.60;;;15.90;99.90;;;;;;5092977;28;20382;-72
2021/06/06 07:08:35;;;;;;;51.65;35.05;;;15.90;99.90;;;;;;5094394;28;20020;-73
2021/06/06 07:11:02;;;;;;;56.25;36.13;;;16.00;99.90;;;;;;5092792;28;20069;-73
2021/06/06 07:13:28;;;;;;;58.30;36.53;;;16.00;99.90;;;;;;5093177;28;20099;-73
2021/06/06 07:15:56;;;;;;;56.30;37.05;;;16.00;99.90;;;;;;5092850;28;20494;-73
2021/06/06 07:18:22;;;;;;;61.00;36.85;;;16.00;99.90;;;;;;5093778;28;20044;-73
2021/06/06 07:20:56;;;;;;;63.55;37.08;;;16.00;99.90;;;;;;5092894;28;20409;-73
2021/06/06 07:23:35;;;;;;;63.63;37.20;;;16.10;99.90;;;;;;5093094;28;20042;-73
2021/06/06 07:26:04;;;;;;;59.47;37.92;;;16.10;99.90;;;;;;5093812;28;20472;-74
2021/06/06 07:28:31;;;;;;;62.03;36.65;;;16.00;99.90;;;;;;5094194;28;20035;-73
2021/06/06 07:30:59;;;;;;;59.15;37.55;;;16.10;99.90;;;;;;5093585;28;20073;-73
2021/06/06 07:33:28;;;;;;;54.10;35.67;;;16.20;99.90;;;;;;5094097;28;20073;-73
2021/06/06 07:35:55;;;;;;;53.80;34.97;;;16.40;99.90;;;;;;5093548;28;20133;-73
2021/06/06 07:38:23;;;;;;;56.53;36.58;;;16.40;99.90;;;;;;5093843;28;20050;-73
2021/06/06 07:40:49;;;;;;;58.33;36.67;;;16.50;99.90;;;;;;5094132;28;20024;-73
2021/06/06 07:43:15;;;;;;;55.70;34.13;;;16.50;99.90;;;;;;5075693;28;20016;-73
2021/06/06 07:45:42;;;;;;;59.83;36.45;;;16.50;99.90;;;;;;5093957;28;20089;-73
2021/06/06 07:48:08;;;;;;;60.78;35.05;;;16.50;99.90;;;;;;5094345;28;20016;-73
2021/06/06 07:50:36;;;;;;;57.53;34.35;;;16.70;99.90;;;;;;5076468;28;20086;-73
2021/06/06 07:53:03;;;;;;;54.70;35.22;;;16.80;99.90;;;;;;5093796;28;20024;-73
2021/06/06 07:55:29;;;;;;;56.50;35.40;;;16.80;99.90;;;;;;5093412;28;20470;-73
2021/06/06 07:57:55;;;;;;;58.40;36.95;;;16.70;99.90;;;;;;5093734;28;20103;-73
2021/06/06 08:00:27;;;;;;;61.63;35.80;;;16.60;99.90;;;;;;5093420;28;20583;-73
2021/06/06 08:02:52;;;;;;;57.97;37.38;;;16.50;99.90;;;;;;5092558;28;20099;-73
2021/06/06 08:05:19;;;;;;;58.38;36.33;;;16.50;99.90;;;;;;5075490;28;20109;-73
2021/06/06 08:07:46;;;;;;;58.55;35.15;;;16.60;99.90;;;;;;5093315;28;20102;-73
2021/06/06 08:10:14;;;;;;;58.78;35.22;;;16.70;99.90;;;;;;5093492;28;20020;-73
2021/06/06 08:12:39;;;;;;;56.67;35.75;;;16.80;99.90;;;;;;5093051;28;20404;-73
2021/06/06 08:15:08;;;;;;;55.95;34.55;;;16.70;99.90;;;;;;5091953;28;20031;-73
2021/06/06 08:17:34;;;;;;;59.95;33.67;;;16.80;99.90;;;;;;5093100;28;20103;-73
2021/06/06 08:20:00;;;;;;;53.83;34.97;;;16.90;99.90;;;;;;5097471;28;20012;-73
2021/06/06 08:22:26;;;;;;;57.08;35.42;;;16.90;99.90;;;;;;5096416;28;20073;-73
2021/06/06 08:24:51;;;;;;;57.55;35.22;;;17.00;99.90;;;;;;5095605;28;20070;-73
2021/06/06 08:27:20;;;;;;;56.13;34.90;;;17.00;99.90;;;;;;5097327;28;20024;-73
2021/06/06 08:29:45;;;;;;;55.25;34.08;;;17.00;99.90;;;;;;5095525;28;20028;-73
2021/06/06 08:32:11;;;;;;;54.90;36.65;;;16.90;99.90;;;;;;5078244;28;20117;-73
2021/06/06 08:34:37;;;;;;;60.85;35.72;;;16.70;99.90;;;;;;5096643;28;20073;-73
2021/06/06 08:37:04;;;;;;;56.25;35.00;;;16.70;99.90;;;;;;5096042;28;20028;-73
2021/06/06 08:39:36;;;;;;;53.55;34.60;;;16.80;99.90;;;;;;5096610;28;20465;-74
2021/06/06 08:42:18;;;;;;;59.90;36.17;;;16.70;99.90;;;;;;5095592;28;20076;-73
2021/06/06 08:44:54;;;;;;;59.50;36.55;;;16.70;99.90;;;;;;5078939;28;20024;-73
2021/06/06 08:47:25;;;;;;;71.88;39.03;;;16.70;99.90;;;;;;5096742;28;20160;-73
2021/06/06 08:49:54;;;;;;;70.50;38.28;;;16.60;99.90;;;;;;5096691;28;20042;-73
2021/06/06 08:55:48;;;;;;;63.53;38.65;;;16.60;99.90;;;;;;5128001;27;20136;-73
2021/06/06 08:58:42;;;;;;;60.85;36.63;;;16.60;99.90;;;;;;5110766;28;20023;-72
2021/06/06 09:01:20;;;;;;;;;;;16.60;99.90;;;;;;5112311;28;20055;-72
2021/06/06 09:03:47;;;;;;;57.88;36.53;;;16.60;99.90;;;;;;5111508;28;20276;-73
2021/06/06 09:06:20;;;;;;;59.10;38.53;;;16.60;99.90;;;;;;5110562;28;20468;-73
2021/06/06 09:08:46;;;;;;;58.53;38.85;;;16.60;99.90;;;;;;5110040;28;20076;-73
2021/06/06 09:11:17;;;;;;;65.50;38.85;;;16.60;99.90;;;;;;5110419;28;20028;-73
2021/06/06 09:13:43;;;;;;;63.65;39.22;;;16.70;99.90;;;;;;5110220;28;20032;-73
2021/06/06 09:16:16;;;;;;;61.97;38.83;;;16.70;99.90;;;;;;5110176;28;20048;-73
2021/06/06 09:18:46;;;;;;;63.25;38.72;;;16.70;99.90;;;;;;5093191;28;20031;-73
2021/06/06 09:21:19;;;;;;;54.72;36.88;;;16.70;99.90;;;;;;5110349;28;20070;-74
2021/06/06 09:23:46;;;;;;;54.60;35.83;;;16.60;99.90;;;;;;5110368;28;20044;-73
2021/06/06 09:26:23;;;;;;;52.35;34.75;;;16.70;99.90;;;;;;5109914;28;20062;-73
2021/06/06 09:29:03;;;;;;;55.42;36.95;;;16.90;99.90;;;;;;5110777;28;20426;-73
2021/06/06 09:31:29;;;;;;;53.45;35.85;;;17.00;99.90;;;;;;5109406;28;20027;-73
2021/06/06 09:33:59;;;;;;;56.92;37.78;;;16.90;99.90;;;;;;5110870;28;20020;-73
2021/06/06 09:36:57;;;;;;;54.47;35.58;;;16.90;99.90;;;;;;5111092;28;20027;-73
2021/06/06 09:39:24;;;;;;;52.53;34.83;;;17.00;99.90;;;;;;5110861;28;20530;-73
2021/06/06 09:41:55;;;;;;;53.30;34.78;;;17.10;99.90;;;;;;5111113;28;20428;-73
2021/06/06 09:44:26;;;;;;;49.25;34.38;;;17.30;99.90;;;;;;5109870;28;20024;-73
2021/06/06 09:47:14;;;;;;;47.63;32.90;;;17.40;99.90;;;;;;5109257;28;20055;-73
2021/06/06 09:49:44;;;;;;;49.55;34.00;;;17.60;99.90;;;;;;5110239;28;20032;-73
2021/06/06 09:52:40;;;;;;;50.30;34.38;;;17.70;99.90;;;;;;5109734;28;20461;-73
2021/06/06 09:55:28;;;;;;;50.17;31.75;;;17.90;99.90;;;;;;5110428;28;20043;-74
2021/06/06 09:58:09;;;;;;;46.40;32.25;;;18.10;99.90;;;;;;5110403;28;20047;-74
2021/06/06 10:00:39;;;;;;;47.17;30.55;;;18.30;99.90;;;;;;5110712;28;20039;-73
2021/06/06 10:03:28;;;;;;;44.92;30.35;;;18.20;99.90;;;;;;5110580;28;20369;-73
2021/06/06 10:06:10;;;;;;;41.55;29.65;;;18.10;99.90;;;;;;5084127;28;20034;-74
2021/06/06 10:08:36;;;;;;;43.20;30.58;;;18.10;99.90;;;;;;5095471;28;20334;-74
2021/06/06 10:11:17;;;;;;;44.33;31.85;;;18.10;99.90;;;;;;5096604;28;20024;-73
2021/06/06 10:13:46;;;;;;;44.50;31.30;;;18.00;99.90;;;;;;5095587;28;20035;-74
2021/06/06 10:16:18;;;;;;;55.03;33.58;;;17.90;99.90;;;;;;5095384;28;20099;-73
2021/06/06 10:18:56;;;;;;;53.65;34.55;;;17.80;99.90;;;;;;5094953;28;20024;-73
2021/06/06 10:21:27;;;;;;;53.55;35.25;;;17.70;99.90;;;;;;5095274;28;20012;-73
2021/06/06 10:24:05;;;;;;;51.80;34.17;;;17.70;99.90;;;;;;5096618;28;20077;-74
2021/06/06 10:26:47;;;;;;;47.15;33.20;;;17.70;99.90;;;;;;5095148;28;20080;-74
2021/06/06 10:29:37;;;;;;;48.58;34.00;;;17.80;99.90;;;;;;5094874;28;20020;-73
2021/06/06 10:32:09;;;;;;;52.63;33.03;;;17.90;99.90;;;;;;5111696;28;20083;-73
2021/06/06 10:34:41;;;;;;;48.55;32.30;;;18.00;99.90;;;;;;5094868;28;20028;-74
2021/06/06 10:37:09;;;;;;;51.50;32.78;;;18.00;99.90;;;;;;5095311;28;20088;-74
2021/06/06 10:39:41;;;;;;;49.05;32.60;;;18.20;99.90;;;;;;5077748;28;20056;-74
2021/06/06 10:42:18;;;;;;;44.60;30.92;;;18.40;99.90;;;;;;5094541;28;20024;-73
2021/06/06 10:44:56;;;;;;;42.25;30.50;;;18.40;99.90;;;;;;5096302;28;20070;-74
2021/06/06 10:47:34;;;;;;;45.05;32.47;;;18.30;99.90;;;;;;5096011;28;20056;-74
2021/06/06 10:50:16;;;;;;;41.55;29.52;;;18.30;99.90;;;;;;5096237;28;20081;-73
2021/06/06 10:52:42;;;;;;;39.75;30.20;;;18.50;99.90;;;;;;5095148;28;20035;-73
2021/06/06 10:55:30;;;;;;;45.78;30.65;;;18.50;99.90;;;;;;5094126;28;20382;-73
2021/06/06 10:58:08;;;;;;;44.97;30.75;;;18.50;99.90;;;;;;5095272;28;20043;-74
2021/06/06 11:00:40;;;;;;;47.58;30.15;;;18.50;99.90;;;;;;5095569;28;20016;-72
2021/06/06 11:03:23;;;;;;;48.20;30.65;;;18.50;99.90;;;;;;5094711;28;20047;-72
2021/06/06 11:05:53;;;;;;;43.55;31.13;;;18.60;99.90;;;;;;5078587;28;20107;-71
2021/06/06 11:11:27;;;;;;;43.55;29.92;;;18.90;99.90;;;;;;5128175;27;20125;-73
2021/06/06 11:14:12;;;;;;;42.97;29.88;;;18.90;99.90;;;;;;5127637;28;20503;-72
2021/06/06 11:16:41;;;;;;;45.97;29.75;;;18.80;99.90;;;;;;5111916;28;20027;-72
2021/06/06 11:19:12;;;;;;;41.63;28.85;;;18.60;99.90;;;;;;5110010;28;20028;-72
2021/06/06 11:24:26;;;;;;;38.75;28.88;;;18.60;99.90;;;;;;5127995;27;20215;-72
2021/06/06 11:33:12;;;;;;;40.83;27.88;;;18.70;99.90;;;;;;5145190;27;20132;-73
2021/06/06 11:35:47;;;;;;;42.10;28.88;;;18.60;99.90;;;;;;5110438;28;20020;-73
2021/06/06 11:38:36;;;;;;;45.92;30.02;;;18.60;99.90;;;;;;5094038;28;20099;-72
2021/06/06 11:44:21;;;;;;;44.03;28.95;;;18.30;99.90;;;;;;5128143;27;20137;-74
2021/06/06 11:47:08;;;;;;;43.97;28.42;;;18.40;99.90;;;;;;5111218;28;20020;-72
2021/06/06 11:50:03;;;;;;;42.83;26.75;;;18.90;99.90;;;;;;5110267;28;20039;-74
2021/06/06 11:52:52;;;;;;;47.47;28.25;;;19.10;99.90;;;;;;5111125;28;20024;-73
2021/06/06 11:55:29;;;;;;;40.45;26.85;;;19.00;99.90;;;;;;5110096;28;20114;-74
2021/06/06 11:58:23;;;;;;;42.50;27.52;;;19.00;99.90;;;;;;5111434;28;20031;-74
2021/06/06 12:03:34;;;;;;;40.97;25.92;;;18.80;99.90;;;;;;5128148;27;20133;-73
2021/06/06 12:06:04;;;;;;;40.17;26.15;;;18.60;99.90;;;;;;5094188;28;20043;-73
2021/06/06 12:11:09;;;;;;;44.67;27.75;;;18.70;99.90;;;;;;5123338;27;928316;-72
2021/06/06 12:13:39;;;;;;;44.20;28.85;;;18.50;99.90;;;;;;5135142;27;20039;-72
2021/06/06 12:16:16;;;;;;;46.03;28.60;;;18.50;99.90;;;;;;5134783;27;20053;-73
2021/06/06 12:18:45;;;;;;;38.42;27.63;;;18.50;99.90;;;;;;5133941;27;20019;-74
2021/06/06 12:21:21;;;;;;;43.55;26.33;;;18.50;99.90;;;;;;5134798;27;20022;-71
2021/06/06 12:23:50;;;;;;;38.45;25.95;;;18.60;99.90;;;;;;5133888;27;20460;-74
2021/06/06 12:26:24;;;;;;;42.10;25.70;;;18.60;99.90;;;;;;5100557;27;20023;-74
2021/06/06 12:28:54;;;;;;;39.53;25.88;;;18.60;99.90;;;;;;5135014;27;20019;-74
2021/06/06 12:31:42;;;;;;;35.60;25.48;;;18.80;99.90;;;;;;5116644;27;20068;-74
2021/06/06 12:34:26;;;;;;;42.95;26.02;;;19.10;99.90;;;;;;5134030;27;20033;-75
2021/06/06 12:37:00;;;;;;;36.47;24.50;;;19.10;99.90;;;;;;5100394;27;20532;-74
2021/06/06 12:39:26;;;;;;;30.27;22.90;;;19.40;99.90;;;;;;5134577;27;20465;-74
2021/06/06 12:41:54;;;;;;;31.92;24.45;;;19.50;99.90;;;;;;5133910;27;20025;-74
2021/06/06 12:44:25;;;;;;;33.33;23.85;;;19.50;99.90;;;;;;5116898;27;20023;-74
2021/06/06 12:46:56;;;;;;;32.78;22.30;;;19.70;99.90;;;;;;5152183;27;20026;-74
2021/06/06 12:49:35;;;;;;;32.53;22.05;;;19.80;99.90;;;;;;5116276;27;20056;-74
2021/06/06 12:52:13;;;;;;;29.60;21.35;;;20.10;99.90;;;;;;5116186;27;20460;-74
2021/06/06 12:54:40;;;;;;;30.08;21.50;;;20.40;99.90;;;;;;5133261;27;20539;-74
2021/06/06 12:57:17;;;;;;;29.92;21.35;;;20.80;99.90;;;;;;5133657;27;20019;-74
2021/06/06 12:59:43;;;;;;;27.83;21.58;;;21.00;99.90;;;;;;5152423;27;20019;-73
2021/06/06 13:02:15;;;;;;;32.83;20.83;;;21.00;99.90;;;;;;5134555;27;20031;-73
2021/06/06 13:04:42;;;;;;;29.02;21.35;;;20.90;99.90;;;;;;5116601;27;20030;-74
2021/06/06 13:07:32;;;;;;;27.70;21.23;;;20.70;99.90;;;;;;5099076;27;20034;-74
2021/06/06 13:09:58;;;;;;;31.23;21.48;;;20.70;99.90;;;;;;5151188;27;20065;-74